This is the latest recevied weather packets stored in our database for station/object OK2ZAW-21. If no packets are shown the sender has not sent any weather packets the latest 10 day(s).
| Time | Temp. | Humidity | Pressure | Rain* | Wind** | Luminosity | Snow |
|---|---|---|---|---|---|---|---|
| 1788700567 | 20.56° C | 46% | 1029.7 hPa | - | - | 422 W/m² | - |
| 1788700256 | 18.33° C | 53% | 1029.8 hPa | - | - | 422 W/m² | - |
| 1788699945 | 18.89° C | 51% | 1029.8 hPa | - | - | 422 W/m² | - |
| 1788699634 | 18.33° C | 52% | 1029.7 hPa | - | - | 422 W/m² | - |
| 1788699323 | 19.44° C | 49% | 1029.7 hPa | - | - | 422 W/m² | - |
| 1788699011 | 18.33° C | 51% | 1029.8 hPa | - | - | 423 W/m² | - |
| 1788698700 | 18.89° C | 50% | 1029.7 hPa | - | - | 422 W/m² | - |
| 1788698389 | 18.33° C | 52% | 1029.8 hPa | - | - | 422 W/m² | - |
| 1788698078 | 19.44° C | 49% | 1029.7 hPa | - | - | 422 W/m² | - |
| 1788697766 | 18.33° C | 50% | 1029.7 hPa | - | - | 422 W/m² | - |
| 1788697455 | 18.33° C | 52% | 1029.7 hPa | - | - | 423 W/m² | - |
| 1788697144 | 18.33° C | 53% | 1029.9 hPa | - | - | 423 W/m² | - |
| 1788696833 | 17.22° C | 54% | 1029.8 hPa | - | - | 423 W/m² | - |
| 1788696522 | 17.22° C | 55% | 1029.8 hPa | - | - | 423 W/m² | - |
| 1788696210 | 17.78° C | 54% | 1029.9 hPa | - | - | 423 W/m² | - |
| 1788695899 | 17.22° C | 55% | 1029.9 hPa | - | - | 423 W/m² | - |
| 1788695588 | 17.22° C | 54% | 1030 hPa | - | - | 423 W/m² | - |
| 1788695277 | 17.78° C | 55% | 1030 hPa | - | - | 423 W/m² | - |
| 1788694966 | 17.78° C | 55% | 1030 hPa | - | - | 423 W/m² | - |
| 1788694655 | 17.78° C | 57% | 1030 hPa | - | - | 424 W/m² | - |
| 1788694343 | 17.78° C | 56% | 1030 hPa | - | - | 423 W/m² | - |
| 1788694032 | 17.78° C | 55% | 1030 hPa | - | - | 424 W/m² | - |
| 1788693721 | 17.22° C | 58% | 1030 hPa | - | - | 424 W/m² | - |
| 1788693410 | 17.22° C | 58% | 1030 hPa | - | - | 424 W/m² | - |
| 1788693099 | 16.67° C | 61% | 1030.1 hPa | - | - | 424 W/m² | - |
* Rain since midnight (hover to see other rain measurements)
** Current wind speed in m/s (hover to see current wind gust speed)